createdAt,value
2017-06-12T00:00:37.735Z,19.13
2017-06-12T00:01:37.961Z,19.13
2017-06-12T00:02:38.063Z,19.05
2017-06-12T00:03:37.627Z,19.12
2017-06-12T00:04:37.911Z,19.13
2017-06-12T00:05:37.890Z,19.02
2017-06-12T00:06:37.868Z,18.99
2017-06-12T00:07:37.849Z,19.01
2017-06-12T00:08:37.829Z,18.96
2017-06-12T00:09:37.816Z,18.97
2017-06-12T00:10:37.841Z,19.02
2017-06-12T00:11:37.473Z,18.99
2017-06-12T00:12:37.755Z,18.97
2017-06-12T00:13:37.745Z,19.01
2017-06-12T00:14:37.728Z,19.02
2017-06-12T00:15:37.707Z,18.97
2017-06-12T00:16:37.680Z,18.99
2017-06-12T00:17:37.652Z,18.99
2017-06-12T00:18:37.642Z,19.06
2017-06-12T00:19:37.626Z,19.02
2017-06-12T00:20:37.595Z,19.09
2017-06-12T00:21:37.580Z,19.05
2017-06-12T00:22:37.558Z,19.07
2017-06-12T00:23:37.559Z,19.07
2017-06-12T00:24:37.520Z,19.05
2017-06-12T00:25:37.257Z,19.05
2017-06-12T00:26:37.533Z,19.09
2017-06-12T00:27:37.462Z,19.16
2017-06-12T00:28:37.493Z,19.23
2017-06-12T00:29:37.424Z,19.12
2017-06-12T00:30:37.407Z,19.21
2017-06-12T00:31:37.384Z,19.2
2017-06-12T00:32:37.370Z,19.21
2017-06-12T00:33:37.356Z,19.17
2017-06-12T00:34:37.336Z,19.09
2017-06-12T00:35:37.309Z,19.17
2017-06-12T00:36:37.286Z,19.17
2017-06-12T00:37:37.270Z,19.12
2017-06-12T00:38:37.251Z,19.17
2017-06-12T00:39:37.230Z,19.12
2017-06-12T00:40:37.211Z,19.12
2017-06-12T00:41:37.194Z,19.12
2017-06-12T00:42:37.173Z,19.17
2017-06-12T00:43:36.851Z,19.13
2017-06-12T00:44:37.138Z,19.12
2017-06-12T00:45:37.143Z,19.13
2017-06-12T00:46:37.095Z,19.07
2017-06-12T00:47:37.128Z,19.06
2017-06-12T00:48:37.061Z,19.05
2017-06-12T00:49:37.036Z,19.1
2017-06-12T00:50:36.775Z,19.09
2017-06-12T00:51:37.008Z,19.01
2017-06-12T00:52:36.685Z,18.97
2017-06-12T00:53:36.971Z,18.97
2017-06-12T00:54:36.946Z,18.97
2017-06-12T00:55:36.931Z,19.01
2017-06-12T00:56:36.911Z,18.93
2017-06-12T00:57:36.880Z,18.96
2017-06-12T00:58:36.869Z,18.89
2017-06-12T00:59:36.843Z,18.84
2017-06-12T01:00:36.828Z,18.76
2017-06-12T01:01:36.811Z,18.71
2017-06-12T01:02:36.794Z,18.62
2017-06-12T01:03:36.775Z,18.64
2017-06-12T01:04:36.754Z,18.6
2017-06-12T01:05:36.731Z,18.57
2017-06-12T01:06:36.707Z,18.56
2017-06-12T01:07:36.693Z,18.54
2017-06-12T01:08:36.669Z,18.6
2017-06-12T01:09:36.654Z,18.56
2017-06-12T01:10:36.630Z,18.51
2017-06-12T01:11:36.612Z,18.51
2017-06-12T01:12:36.593Z,18.35
2017-06-12T01:13:36.576Z,18.36
2017-06-12T01:14:36.548Z,18.42
2017-06-12T01:15:36.534Z,18.42
2017-06-12T01:16:36.214Z,18.32
2017-06-12T01:17:36.494Z,18.38
2017-06-12T01:18:36.558Z,18.35
2017-06-12T01:19:36.455Z,18.36
2017-06-12T01:20:36.444Z,18.31
2017-06-12T01:21:36.121Z,18.28
2017-06-12T01:22:36.500Z,18.32
2017-06-12T01:23:36.375Z,18.31
2017-06-12T01:24:36.357Z,18.29
2017-06-12T01:25:36.342Z,18.26
2017-06-12T01:26:36.317Z,18.19
2017-06-12T01:27:36.308Z,18.26
2017-06-12T01:28:36.282Z,18.21
2017-06-12T01:29:36.258Z,18.19
2017-06-12T01:30:36.257Z,18.17
2017-06-12T01:31:36.271Z,18.1
2017-06-12T01:32:36.205Z,18.16
2017-06-12T01:33:36.187Z,18.11
2017-06-12T01:34:36.165Z,18.07
2017-06-12T01:35:36.142Z,18.02
2017-06-12T01:36:36.129Z,18.11
2017-06-12T01:37:36.102Z,18.05
2017-06-12T01:38:36.088Z,18.05
2017-06-12T01:39:36.076Z,17.98
2017-06-12T01:40:36.042Z,18.02
2017-06-12T01:41:36.030Z,18.09
2017-06-12T01:42:36.009Z,18.05
2017-06-12T01:43:35.981Z,17.96
2017-06-12T01:44:35.967Z,17.91
2017-06-12T01:45:35.948Z,18.05
2017-06-12T01:46:35.930Z,17.92
2017-06-12T01:47:35.909Z,17.95
2017-06-12T01:48:35.889Z,17.94
2017-06-12T01:49:35.863Z,17.79
2017-06-12T01:50:35.848Z,17.8
2017-06-12T01:51:35.832Z,17.81
2017-06-12T01:52:35.804Z,17.68
2017-06-12T01:53:35.790Z,17.77
2017-06-12T01:54:35.771Z,17.74
2017-06-12T01:55:35.747Z,17.66
2017-06-12T01:56:35.732Z,17.63
2017-06-12T01:57:35.712Z,17.63
2017-06-12T01:58:35.737Z,17.63
2017-06-12T01:59:35.695Z,17.66
2017-06-12T02:00:35.653Z,17.63
2017-06-12T02:01:35.627Z,17.63
2017-06-12T02:02:35.661Z,17.63
2017-06-12T02:03:35.596Z,17.58
2017-06-12T02:04:35.570Z,17.6
2017-06-12T02:05:35.554Z,17.62
2017-06-12T02:06:35.533Z,17.49
2017-06-12T02:07:35.516Z,17.53
2017-06-12T02:08:35.487Z,17.58
2017-06-12T02:09:35.238Z,17.58
2017-06-12T02:10:34.908Z,17.62
2017-06-12T02:11:35.173Z,17.55
2017-06-12T02:12:35.139Z,17.65
2017-06-12T02:13:35.167Z,17.66
2017-06-12T02:14:34.781Z,17.65
2017-06-12T02:15:35.073Z,17.55
2017-06-12T02:16:35.423Z,17.49
2017-06-12T02:17:35.047Z,17.54
2017-06-12T02:18:34.708Z,17.53
2017-06-12T02:19:34.682Z,17.58
2017-06-12T02:20:34.968Z,17.53
2017-06-12T02:21:35.270Z,17.55
2017-06-12T02:22:34.951Z,17.51
2017-06-12T02:23:34.632Z,17.49
2017-06-12T02:24:34.895Z,17.46
2017-06-12T02:25:35.239Z,17.51
2017-06-12T02:26:34.868Z,17.39
2017-06-12T02:27:34.835Z,17.46
2017-06-12T02:28:34.501Z,17.42
2017-06-12T02:29:34.558Z,17.32
2017-06-12T02:30:34.488Z,17.3
2017-06-12T02:31:34.760Z,17.3
2017-06-12T02:32:34.457Z,17.33
2017-06-12T02:33:34.420Z,17.33
2017-06-12T02:34:34.407Z,17.33
2017-06-12T02:35:34.375Z,17.32
2017-06-12T02:36:34.356Z,17.28
2017-06-12T02:37:34.709Z,17.24
2017-06-12T02:38:34.644Z,17.24
2017-06-12T02:39:34.628Z,17.1
2017-06-12T02:40:34.626Z,17.14
2017-06-12T02:41:34.264Z,17.15
2017-06-12T02:42:34.277Z,17.1
2017-06-12T02:43:34.798Z,17.1
2017-06-12T02:44:34.773Z,17.09
2017-06-12T02:45:34.760Z,17.12
2017-06-12T02:46:34.741Z,17.1
2017-06-12T02:47:34.714Z,17.03
2017-06-12T02:48:34.697Z,17.02
2017-06-12T02:49:34.668Z,16.98
2017-06-12T02:50:34.653Z,16.99
2017-06-12T02:51:34.634Z,16.95
2017-06-12T02:52:34.611Z,16.9
2017-06-12T02:53:34.599Z,16.87
2017-06-12T02:54:34.580Z,16.9
2017-06-12T02:55:34.560Z,16.9
2017-06-12T02:56:34.529Z,16.88
2017-06-12T02:57:34.513Z,16.87
2017-06-12T02:58:34.501Z,16.81
2017-06-12T02:59:34.562Z,16.8
2017-06-12T03:00:34.458Z,16.78
2017-06-12T03:01:34.127Z,16.69
2017-06-12T03:02:34.412Z,16.72
2017-06-12T03:03:34.096Z,16.57
2017-06-12T03:04:34.365Z,16.67
2017-06-12T03:05:34.603Z,16.62
2017-06-12T03:06:34.333Z,16.57
2017-06-12T03:07:34.010Z,16.57
2017-06-12T03:08:34.289Z,16.62
2017-06-12T03:09:34.273Z,16.52
2017-06-12T03:10:34.300Z,16.44
2017-06-12T03:11:34.232Z,16.48
2017-06-12T03:12:34.211Z,16.52
2017-06-12T03:13:34.193Z,16.5
2017-06-12T03:14:34.280Z,16.52
2017-06-12T03:15:34.144Z,16.44
2017-06-12T03:16:34.127Z,16.51
2017-06-12T03:17:34.112Z,16.52
2017-06-12T03:18:34.094Z,16.51
2017-06-12T03:19:34.073Z,16.45
2017-06-12T03:20:34.046Z,16.45
2017-06-12T03:21:34.027Z,16.47
2017-06-12T03:22:33.711Z,16.44
2017-06-12T03:23:33.990Z,16.47
2017-06-12T03:24:33.971Z,16.41
2017-06-12T03:25:33.960Z,16.36
2017-06-12T03:26:33.975Z,16.44
2017-06-12T03:27:33.613Z,16.41
2017-06-12T03:28:33.893Z,16.33
2017-06-12T03:29:33.865Z,16.33
2017-06-12T03:30:33.874Z,16.34
2017-06-12T03:31:33.829Z,16.36
2017-06-12T03:32:33.856Z,16.32
2017-06-12T03:33:33.791Z,16.27
2017-06-12T03:34:33.773Z,16.32
2017-06-12T03:35:33.744Z,16.23
2017-06-12T03:36:33.723Z,16.34
2017-06-12T03:37:33.725Z,16.27
2017-06-12T03:38:33.728Z,16.34
2017-06-12T03:39:33.671Z,16.3
2017-06-12T03:40:33.642Z,16.27
2017-06-12T03:41:33.719Z,16.17
2017-06-12T03:42:33.599Z,16.23
2017-06-12T03:43:33.584Z,16.25
2017-06-12T03:44:33.812Z,16.23
2017-06-12T03:45:33.536Z,16.18
2017-06-12T03:46:33.517Z,16.3
2017-06-12T03:47:33.496Z,16.25
2017-06-12T03:48:33.478Z,16.22
2017-06-12T03:49:33.462Z,16.25
2017-06-12T03:50:33.438Z,16.27
2017-06-12T03:51:33.424Z,16.29
2017-06-12T03:52:33.394Z,16.22
2017-06-12T03:53:33.636Z,16.22
2017-06-12T03:54:33.357Z,16.17
2017-06-12T03:55:33.335Z,16.32
2017-06-12T03:56:33.363Z,16.3
2017-06-12T03:57:33.297Z,16.25
2017-06-12T03:58:33.284Z,16.29
2017-06-12T03:59:33.254Z,16.32
2017-06-12T04:00:33.286Z,16.3
2017-06-12T04:01:32.915Z,16.41
2017-06-12T04:02:33.270Z,16.47
2017-06-12T04:03:33.172Z,16.63
2017-06-12T04:04:33.154Z,16.7
2017-06-12T04:05:33.137Z,16.72
2017-06-12T04:06:33.112Z,16.9
2017-06-12T04:07:33.095Z,16.9
2017-06-12T04:08:33.073Z,17.03
2017-06-12T04:09:33.058Z,17.06
2017-06-12T04:10:33.035Z,17.18
2017-06-12T04:11:33.007Z,17.3
2017-06-12T04:12:32.991Z,17.32
2017-06-12T04:13:32.973Z,17.55
2017-06-12T04:14:32.955Z,17.66
2017-06-12T04:15:32.939Z,17.68
2017-06-12T04:16:32.920Z,17.74
2017-06-12T04:17:32.897Z,17.81
2017-06-12T04:18:32.934Z,17.91
2017-06-12T04:19:32.554Z,17.96
2017-06-12T04:20:32.843Z,17.98
2017-06-12T04:21:32.817Z,17.96
2017-06-12T04:22:33.049Z,17.92
2017-06-12T04:23:32.779Z,17.91
2017-06-12T04:24:32.756Z,17.96
2017-06-12T04:25:32.741Z,17.98
2017-06-12T04:26:32.722Z,18.1
2017-06-12T04:27:32.705Z,18.2
2017-06-12T04:28:32.682Z,18.23
2017-06-12T04:29:32.724Z,18.44
2017-06-12T04:30:32.641Z,18.53
2017-06-12T04:31:32.624Z,18.6
2017-06-12T04:32:32.605Z,18.69
2017-06-12T04:33:32.588Z,18.74
2017-06-12T04:34:32.269Z,18.72
2017-06-12T04:35:32.549Z,18.74
2017-06-12T04:36:32.538Z,18.86
2017-06-12T04:37:32.534Z,18.9
2017-06-12T04:38:32.547Z,18.97
2017-06-12T04:39:32.534Z,19.25
2017-06-12T04:40:31.861Z,19.16
2017-06-12T04:41:32.435Z,19.43
2017-06-12T04:42:32.424Z,19.55
2017-06-12T04:43:32.101Z,19.53
2017-06-12T04:44:32.394Z,19.71
2017-06-12T04:45:32.367Z,19.79
2017-06-12T04:46:32.361Z,19.86
2017-06-12T04:47:32.330Z,20
2017-06-12T04:48:32.016Z,19.95
2017-06-12T04:49:32.306Z,19.94
2017-06-12T04:50:32.286Z,19.92
2017-06-12T04:51:32.260Z,20.1
2017-06-12T04:52:32.241Z,20.08
2017-06-12T04:53:32.221Z,20.1
2017-06-12T04:54:31.912Z,20.12
2017-06-12T04:55:32.197Z,20.12
2017-06-12T04:56:32.168Z,20.15
2017-06-12T04:57:32.158Z,20.19
2017-06-12T04:58:32.143Z,20.23
2017-06-12T04:59:32.119Z,20.44
2017-06-12T05:00:32.109Z,20.5
2017-06-12T05:01:32.085Z,20.53
2017-06-12T05:02:32.067Z,20.71
2017-06-12T05:03:32.049Z,20.87
2017-06-12T05:04:32.030Z,20.71
2017-06-12T05:05:32.014Z,20.61
2017-06-12T05:06:32.002Z,20.34
2017-06-12T05:07:31.979Z,20.13
2017-06-12T05:08:31.673Z,19.89
2017-06-12T05:09:31.952Z,19.67
2017-06-12T05:10:31.940Z,19.57
2017-06-12T05:11:31.962Z,19.46
2017-06-12T05:12:31.900Z,19.35
2017-06-12T05:13:31.877Z,19.15
2017-06-12T05:14:31.861Z,19.16
2017-06-12T05:15:31.846Z,19.32
2017-06-12T05:16:31.831Z,19.24
2017-06-12T05:17:31.806Z,19.25
2017-06-12T05:18:31.797Z,19.24
2017-06-12T05:19:31.767Z,19.28
2017-06-12T05:20:31.757Z,19.28
2017-06-12T05:21:31.787Z,19.15
2017-06-12T05:22:31.718Z,19.12
2017-06-12T05:23:31.699Z,19.12
2017-06-12T05:24:31.375Z,19.17
2017-06-12T05:25:31.664Z,19.24
2017-06-12T05:26:31.647Z,19.6
2017-06-12T05:27:31.629Z,19.78
2017-06-12T05:28:31.610Z,19.94
2017-06-12T05:29:31.287Z,20.16
2017-06-12T05:30:31.585Z,20.51
2017-06-12T05:31:31.559Z,20.64
2017-06-12T05:32:31.548Z,20.75
2017-06-12T05:33:31.522Z,20.72
2017-06-12T05:34:31.555Z,20.72
2017-06-12T05:35:31.485Z,20.88
2017-06-12T05:36:31.474Z,20.88
2017-06-12T05:37:31.453Z,21.01
2017-06-12T05:38:31.438Z,21.15
2017-06-12T05:39:31.421Z,21.27
2017-06-12T05:40:31.468Z,21.49
2017-06-12T05:41:31.395Z,21.64
2017-06-12T05:42:31.366Z,21.75
2017-06-12T05:43:31.353Z,21.96
2017-06-12T05:44:31.336Z,22.15
2017-06-12T05:45:31.322Z,22.31
2017-06-12T05:46:31.312Z,22.38
2017-06-12T05:47:31.294Z,22.51
2017-06-12T05:48:31.276Z,22.49
2017-06-12T05:49:31.289Z,22.45
2017-06-12T05:50:31.242Z,22.56
2017-06-12T05:51:31.229Z,22.48
2017-06-12T05:52:31.214Z,22.7
2017-06-12T05:53:31.456Z,22.84
2017-06-12T05:54:31.183Z,22.78
2017-06-12T05:55:31.175Z,22.6
2017-06-12T05:56:31.159Z,22.51
2017-06-12T05:57:31.136Z,22.31
2017-06-12T05:58:31.130Z,22.11
2017-06-12T05:59:31.113Z,21.74
2017-06-12T06:00:31.146Z,21.71
2017-06-12T06:01:31.089Z,21.66
2017-06-12T06:02:31.115Z,21.51
2017-06-12T06:03:31.050Z,21.61
2017-06-12T06:04:31.046Z,21.85
2017-06-12T06:05:31.069Z,21.9
2017-06-12T06:06:31.062Z,22.11
2017-06-12T06:07:30.983Z,22.23
2017-06-12T06:08:30.981Z,22.39
2017-06-12T06:09:30.956Z,22.59
2017-06-12T06:10:30.963Z,22.57
2017-06-12T06:11:30.928Z,22.7
2017-06-12T06:12:30.919Z,23.03
2017-06-12T06:13:30.900Z,23.34
2017-06-12T06:14:30.882Z,23.53
2017-06-12T06:15:30.871Z,23.71
2017-06-12T06:16:30.856Z,23.89
2017-06-12T06:17:30.850Z,23.97
2017-06-12T06:18:30.850Z,23.79
2017-06-12T06:19:30.870Z,23.74
2017-06-12T06:20:30.809Z,23.87
2017-06-12T06:21:30.792Z,23.89
2017-06-12T06:22:30.783Z,24.11
2017-06-12T06:23:30.772Z,24.26
2017-06-12T06:24:30.754Z,24.27
2017-06-12T06:25:30.739Z,24.21
2017-06-12T06:26:30.776Z,24.12
2017-06-12T06:27:30.713Z,24.12
2017-06-12T06:28:30.700Z,24.11
2017-06-12T06:29:30.688Z,24.05
2017-06-12T06:30:30.681Z,23.94
2017-06-12T06:31:30.663Z,23.99
2017-06-12T06:32:30.649Z,23.82
2017-06-12T06:33:30.638Z,23.78
2017-06-12T06:34:30.672Z,23.67
2017-06-12T06:35:30.613Z,23.63
2017-06-12T06:36:30.651Z,23.75
2017-06-12T06:37:30.587Z,23.71
2017-06-12T06:38:30.622Z,23.89
2017-06-12T06:39:30.564Z,24.19
2017-06-12T06:40:30.555Z,24.36
2017-06-12T06:41:30.533Z,24.41
2017-06-12T06:42:30.525Z,24.74
2017-06-12T06:43:30.514Z,24.99
2017-06-12T06:44:30.504Z,25.14
2017-06-12T06:45:30.189Z,25.29
2017-06-12T06:46:30.484Z,25.53
2017-06-12T06:47:30.477Z,25.39
2017-06-12T06:48:30.455Z,25.26
2017-06-12T06:49:30.488Z,24.97
2017-06-12T06:50:30.432Z,24.79
2017-06-12T06:51:30.422Z,24.84
2017-06-12T06:52:30.404Z,24.87
2017-06-12T06:53:30.392Z,24.92
2017-06-12T06:54:30.384Z,24.9
2017-06-12T06:55:30.369Z,24.83
2017-06-12T06:56:30.359Z,24.42
2017-06-12T06:57:30.346Z,24.11
2017-06-12T06:58:30.357Z,23.75
2017-06-12T06:59:30.312Z,23.87
2017-06-12T07:00:30.013Z,24
2017-06-12T07:01:30.293Z,24.24
2017-06-12T07:02:30.286Z,24.49
2017-06-12T07:03:30.281Z,24.68
2017-06-12T07:04:30.261Z,24.53
2017-06-12T07:05:30.241Z,24.44
2017-06-12T07:06:30.229Z,24.37
2017-06-12T07:07:30.225Z,24.27
2017-06-12T07:08:30.217Z,24.06
2017-06-12T07:09:30.207Z,24
2017-06-12T07:10:30.183Z,23.87
2017-06-12T07:11:30.173Z,23.69
2017-06-12T07:12:30.152Z,23.59
2017-06-12T07:13:29.871Z,23.56
2017-06-12T07:14:30.122Z,23.49
2017-06-12T07:15:30.126Z,23.47
2017-06-12T07:16:29.799Z,23.5
2017-06-12T07:17:30.144Z,23.62
2017-06-12T07:18:30.077Z,23.57
2017-06-12T07:19:30.063Z,23.5
2017-06-12T07:20:30.048Z,23.44
2017-06-12T07:21:29.427Z,23.12
2017-06-12T07:22:30.020Z,22.96
2017-06-12T07:23:30.009Z,22.75
2017-06-12T07:24:29.997Z,22.64
2017-06-12T07:25:29.983Z,22.63
2017-06-12T07:26:29.965Z,22.64
2017-06-12T07:27:29.950Z,22.56
2017-06-12T07:28:29.929Z,22.48
2017-06-12T07:29:29.922Z,22.27
2017-06-12T07:30:29.897Z,22.15
2017-06-12T07:31:29.578Z,22.01
2017-06-12T07:32:29.870Z,21.86
2017-06-12T07:33:29.856Z,21.75
2017-06-12T07:34:29.841Z,21.7
2017-06-12T07:35:29.524Z,21.85
2017-06-12T07:36:29.861Z,22.27
2017-06-12T07:37:29.792Z,22.78
2017-06-12T07:38:29.778Z,22.97
2017-06-12T07:39:29.761Z,23.03
2017-06-12T07:40:29.753Z,22.79
2017-06-12T07:41:29.437Z,22.46
2017-06-12T07:42:29.717Z,22.08
2017-06-12T07:43:29.460Z,21.66
2017-06-12T07:44:29.685Z,21.42
2017-06-12T07:45:29.674Z,21.16
2017-06-12T07:46:29.659Z,20.93
2017-06-12T07:47:29.640Z,20.9
2017-06-12T07:48:29.628Z,20.85
2017-06-12T07:49:29.605Z,21.13
2017-06-12T07:50:29.594Z,21.24
2017-06-12T07:51:29.623Z,21.36
2017-06-12T07:52:29.555Z,21.53
2017-06-12T07:53:29.541Z,21.55
2017-06-12T07:54:29.527Z,21.64
2017-06-12T07:55:29.610Z,21.79
2017-06-12T07:56:29.594Z,21.74
2017-06-12T07:57:29.479Z,21.74
2017-06-12T07:58:29.562Z,21.71
2017-06-12T07:59:29.452Z,21.66
2017-06-12T08:00:29.432Z,21.52
2017-06-12T08:01:29.423Z,21.33
2017-06-12T08:02:29.402Z,21.52
2017-06-12T08:03:29.376Z,21.63
2017-06-12T08:04:29.363Z,21.7
2017-06-12T08:05:29.460Z,21.77
2017-06-12T08:06:29.337Z,21.86
2017-06-12T08:07:29.015Z,21.91
2017-06-12T08:08:29.102Z,21.98
2017-06-12T08:09:29.283Z,22.09
2017-06-12T08:10:29.268Z,22.21
2017-06-12T08:11:28.959Z,22.19
2017-06-12T08:12:29.233Z,22.12
2017-06-12T08:13:29.226Z,22.17
2017-06-12T08:14:29.209Z,22.08
2017-06-12T08:15:29.241Z,22.01
2017-06-12T08:16:29.278Z,21.82
2017-06-12T08:17:29.261Z,21.67
2017-06-12T08:18:29.138Z,21.37
2017-06-12T08:19:29.374Z,21.3
2017-06-12T08:20:29.111Z,21.13
2017-06-12T08:21:29.241Z,21.09
2017-06-12T08:22:29.077Z,20.93
2017-06-12T08:23:29.068Z,20.93
2017-06-12T08:24:29.041Z,20.88
2017-06-12T08:25:29.027Z,20.75
2017-06-12T08:26:29.018Z,20.63
2017-06-12T08:27:28.996Z,20.76
2017-06-12T08:28:28.991Z,20.9
2017-06-12T08:29:28.955Z,20.85
2017-06-12T08:30:28.945Z,20.81
2017-06-12T08:31:28.723Z,20.87
2017-06-12T08:32:28.918Z,20.81
2017-06-12T08:33:28.898Z,20.79
2017-06-12T08:34:28.870Z,20.53
2017-06-12T08:35:28.859Z,20.37
2017-06-12T08:36:28.894Z,20.31
2017-06-12T08:37:28.521Z,20.27
2017-06-12T08:38:28.907Z,20.4
2017-06-12T08:39:28.792Z,20.63
2017-06-12T08:40:28.774Z,20.87
2017-06-12T08:41:28.758Z,20.83
2017-06-12T08:42:28.787Z,20.9
2017-06-12T08:43:28.425Z,20.88
2017-06-12T08:44:28.706Z,20.85
2017-06-12T08:45:28.697Z,20.9
2017-06-12T08:46:28.676Z,20.85
2017-06-12T08:47:28.651Z,20.82
2017-06-12T08:48:28.631Z,20.73
2017-06-12T08:49:28.623Z,20.72
2017-06-12T08:50:28.602Z,21.12
2017-06-12T08:51:28.594Z,21.79
2017-06-12T08:52:28.566Z,22.49
2017-06-12T08:53:28.607Z,23.21
2017-06-12T08:54:28.584Z,23.84
2017-06-12T08:55:28.519Z,24.37
2017-06-12T08:56:28.552Z,24.53
2017-06-12T08:57:28.501Z,24.31
2017-06-12T08:58:28.477Z,24.11
2017-06-12T08:59:28.162Z,23.84
2017-06-12T09:00:28.145Z,23.56
2017-06-12T09:01:28.438Z,23.26
2017-06-12T09:02:28.418Z,23.11
2017-06-12T09:03:28.451Z,22.99
2017-06-12T09:04:28.389Z,22.82
2017-06-12T09:05:28.375Z,22.72
2017-06-12T09:06:28.361Z,22.54
2017-06-12T09:07:28.342Z,22.44
2017-06-12T09:08:28.335Z,22.26
2017-06-12T09:09:28.312Z,21.91
2017-06-12T09:10:28.296Z,21.75
2017-06-12T09:11:28.275Z,21.49
2017-06-12T09:12:28.266Z,21.4
2017-06-12T09:13:28.243Z,21.26
2017-06-12T09:14:28.283Z,21.13
2017-06-12T09:15:28.218Z,21.09
2017-06-12T09:16:28.199Z,20.91
2017-06-12T09:17:28.181Z,20.87
2017-06-12T09:18:27.581Z,20.76
2017-06-12T09:19:28.150Z,20.71
2017-06-12T09:20:28.137Z,20.9
2017-06-12T09:21:28.122Z,20.87
2017-06-12T09:22:28.102Z,20.96
2017-06-12T09:23:28.083Z,20.97
2017-06-12T09:24:28.064Z,20.93
2017-06-12T09:25:28.057Z,20.91
2017-06-12T09:26:28.033Z,20.83
2017-06-12T09:27:28.032Z,20.85
2017-06-12T09:28:27.995Z,20.82
2017-06-12T09:29:27.980Z,20.78
2017-06-12T09:30:27.967Z,20.63
2017-06-12T09:31:27.945Z,20.68
2017-06-12T09:32:28.238Z,20.66
2017-06-12T09:33:27.607Z,20.61
2017-06-12T09:34:27.899Z,20.46
2017-06-12T09:35:27.879Z,20.34
2017-06-12T09:36:27.857Z,20.35
2017-06-12T09:37:27.852Z,20.38
2017-06-12T09:38:27.823Z,20.42
2017-06-12T09:39:27.808Z,20.68
2017-06-12T09:40:27.793Z,20.87
2017-06-12T09:41:27.770Z,21.03
2017-06-12T09:42:27.764Z,21.08
2017-06-12T09:43:27.742Z,21.13
2017-06-12T09:44:27.726Z,21.12
2017-06-12T09:45:27.705Z,21.13
2017-06-12T09:46:27.693Z,21.19
2017-06-12T09:47:27.692Z,21.27
2017-06-12T09:48:27.668Z,21.42
2017-06-12T09:49:27.639Z,21.45
2017-06-12T09:50:27.774Z,21.37
2017-06-12T09:51:27.599Z,21.31
2017-06-12T09:52:27.586Z,21.27
2017-06-12T09:53:27.564Z,21.15
2017-06-12T09:54:27.553Z,21.01
2017-06-12T09:55:27.529Z,20.93
2017-06-12T09:56:27.513Z,20.87
2017-06-12T09:57:27.504Z,20.85
2017-06-12T09:58:27.536Z,20.82
2017-06-12T09:59:27.463Z,20.76
2017-06-12T10:00:27.446Z,20.71
2017-06-12T10:01:27.485Z,20.61
2017-06-12T10:02:27.415Z,20.61
2017-06-12T10:03:27.398Z,20.56
2017-06-12T10:04:27.375Z,20.57
2017-06-12T10:05:27.366Z,20.57
2017-06-12T10:06:27.343Z,20.58
2017-06-12T10:07:27.327Z,20.68
2017-06-12T10:08:27.014Z,20.61
2017-06-12T10:09:27.291Z,20.57
2017-06-12T10:10:27.272Z,20.53
2017-06-12T10:11:27.255Z,20.46
2017-06-12T10:12:26.934Z,20.48
2017-06-12T10:13:27.218Z,20.48
2017-06-12T10:14:27.244Z,20.57
2017-06-12T10:15:27.182Z,20.57
2017-06-12T10:16:27.211Z,20.68
2017-06-12T10:17:27.147Z,20.64
2017-06-12T10:18:27.133Z,20.66
2017-06-12T10:19:27.121Z,20.66
2017-06-12T10:20:27.090Z,20.63
2017-06-12T10:21:26.777Z,20.71
2017-06-12T10:22:27.061Z,20.75
2017-06-12T10:23:27.045Z,20.9
2017-06-12T10:24:27.027Z,20.88
2017-06-12T10:25:27.001Z,21.08
2017-06-12T10:26:26.990Z,21.24
2017-06-12T10:27:27.033Z,21.55
2017-06-12T10:28:26.956Z,21.67
2017-06-12T10:29:26.638Z,21.82
2017-06-12T10:30:26.922Z,21.79
2017-06-12T10:31:26.902Z,21.89
2017-06-12T10:32:26.889Z,21.83
2017-06-12T10:33:26.880Z,21.85
2017-06-12T10:34:26.851Z,21.79
2017-06-12T10:35:26.851Z,21.89
2017-06-12T10:36:26.869Z,21.81
2017-06-12T10:37:26.815Z,21.89
2017-06-12T10:38:26.786Z,21.94
2017-06-12T10:39:26.775Z,21.96
2017-06-12T10:40:26.758Z,21.94
2017-06-12T10:41:26.746Z,21.81
2017-06-12T10:42:26.777Z,21.85
2017-06-12T10:43:26.710Z,21.77
2017-06-12T10:44:26.690Z,21.75
2017-06-12T10:45:26.679Z,21.66
2017-06-12T10:46:26.658Z,21.59
2017-06-12T10:47:26.347Z,21.46
2017-06-12T10:48:26.875Z,21.37
2017-06-12T10:49:26.605Z,21.24
2017-06-12T10:50:26.595Z,21.27
2017-06-12T10:51:26.578Z,21.21
2017-06-12T10:52:26.563Z,21.3
2017-06-12T10:53:26.539Z,21.19
2017-06-12T10:54:26.517Z,21.22
2017-06-12T10:55:26.519Z,21.24
2017-06-12T10:56:26.201Z,21.22
2017-06-12T10:57:26.476Z,21.24
2017-06-12T10:58:26.157Z,21.26
2017-06-12T10:59:26.442Z,21.3
2017-06-12T11:00:26.418Z,21.09
2017-06-12T11:01:26.404Z,21.09
2017-06-12T11:02:26.386Z,20.94
2017-06-12T11:03:26.370Z,20.87
2017-06-12T11:04:26.357Z,20.87
2017-06-12T11:05:26.333Z,20.73
2017-06-12T11:06:26.324Z,20.63
2017-06-12T11:07:26.308Z,20.51
2017-06-12T11:08:26.283Z,20.48
2017-06-12T11:09:26.263Z,20.38
2017-06-12T11:10:26.248Z,20.3
2017-06-12T11:11:25.936Z,20.3
2017-06-12T11:12:26.220Z,20.23
2017-06-12T11:13:26.200Z,20.23
2017-06-12T11:14:26.179Z,20.23
2017-06-12T11:15:26.160Z,20.3
2017-06-12T11:16:26.148Z,20.33
2017-06-12T11:17:26.131Z,20.46
2017-06-12T11:18:26.099Z,20.58
2017-06-12T11:19:26.098Z,20.72
2017-06-12T11:20:26.073Z,20.9
2017-06-12T11:21:26.057Z,20.93
2017-06-12T11:22:25.736Z,21
2017-06-12T11:23:26.028Z,21.11
2017-06-12T11:24:25.996Z,21.16
2017-06-12T11:25:25.992Z,21.22
2017-06-12T11:26:26.009Z,21.19
2017-06-12T11:27:25.944Z,21.36
2017-06-12T11:28:25.943Z,21.51
2017-06-12T11:29:25.926Z,21.52
2017-06-12T11:30:25.906Z,21.75
2017-06-12T11:31:26.104Z,21.79
2017-06-12T11:32:25.860Z,21.85
2017-06-12T11:33:25.551Z,21.83
2017-06-12T11:34:25.878Z,21.75
2017-06-12T11:35:25.809Z,21.68
2017-06-12T11:36:26.059Z,21.52
2017-06-12T11:37:25.782Z,21.52
2017-06-12T11:38:25.768Z,21.56
2017-06-12T11:39:25.745Z,21.49
2017-06-12T11:40:25.740Z,21.58
2017-06-12T11:41:25.711Z,21.55
2017-06-12T11:42:25.748Z,21.37
2017-06-12T11:43:25.674Z,21.27
2017-06-12T11:44:25.660Z,21.06
2017-06-12T11:45:25.392Z,20.96
2017-06-12T11:46:25.627Z,20.91
2017-06-12T11:47:25.615Z,20.71
2017-06-12T11:48:25.595Z,20.63
2017-06-12T11:49:25.579Z,20.64
2017-06-12T11:50:25.560Z,20.64
2017-06-12T11:51:25.532Z,20.5
2017-06-12T11:52:25.524Z,20.5
2017-06-12T11:53:25.514Z,20.35
2017-06-12T11:54:25.493Z,20.31
2017-06-12T11:55:25.470Z,20.2
2017-06-12T11:56:25.446Z,20.2
2017-06-12T11:57:25.435Z,20.19
2017-06-12T11:58:25.423Z,20.17
2017-06-12T11:59:25.402Z,20.31
2017-06-12T12:00:25.377Z,20.51
2017-06-12T12:01:25.359Z,20.72
2017-06-12T12:02:25.342Z,20.83
2017-06-12T12:03:25.389Z,20.94
2017-06-12T12:04:25.317Z,21.16
2017-06-12T12:05:25.288Z,21.3
2017-06-12T12:06:25.273Z,21.3
2017-06-12T12:07:25.262Z,21.26
2017-06-12T12:08:25.241Z,21.28
2017-06-12T12:09:25.220Z,21.11
2017-06-12T12:10:25.255Z,21.09
2017-06-12T12:11:25.226Z,21.05
2017-06-12T12:12:25.167Z,20.82
2017-06-12T12:13:25.156Z,20.75
2017-06-12T12:14:25.141Z,20.54
2017-06-12T12:15:25.111Z,20.34
2017-06-12T12:16:25.095Z,20.2
2017-06-12T12:17:25.081Z,20.2
2017-06-12T12:18:25.058Z,20.17
2017-06-12T12:19:25.099Z,20.2
2017-06-12T12:20:25.033Z,20.15
2017-06-12T12:21:25.002Z,20.27
2017-06-12T12:22:25.033Z,20.33
2017-06-12T12:23:25.018Z,20.31
2017-06-12T12:24:24.957Z,20.3
2017-06-12T12:25:24.929Z,20.26
2017-06-12T12:26:24.925Z,20.26
2017-06-12T12:27:24.899Z,20.17
2017-06-12T12:28:24.883Z,20.19
2017-06-12T12:29:24.869Z,20.05
2017-06-12T12:30:24.847Z,19.98
2017-06-12T12:31:24.824Z,20.05
2017-06-12T12:32:24.803Z,20.04
2017-06-12T12:33:24.493Z,20.1
2017-06-12T12:34:24.464Z,20.17
2017-06-12T12:35:24.747Z,20.1
2017-06-12T12:36:24.736Z,20.16
2017-06-12T12:37:24.715Z,20.2
2017-06-12T12:38:24.695Z,20.37
2017-06-12T12:39:24.681Z,20.5
2017-06-12T12:40:24.657Z,20.61
2017-06-12T12:41:24.646Z,20.71
2017-06-12T12:42:24.678Z,20.79
2017-06-12T12:43:24.617Z,20.9
2017-06-12T12:44:24.595Z,20.93
2017-06-12T12:45:24.569Z,21.09
2017-06-12T12:46:24.552Z,21.21
2017-06-12T12:47:24.532Z,21.4
2017-06-12T12:48:24.519Z,21.4
2017-06-12T12:49:24.499Z,21.37
2017-06-12T12:50:24.483Z,21.49
2017-06-12T12:51:24.472Z,21.56
2017-06-12T12:52:24.443Z,21.59
2017-06-12T12:53:24.431Z,21.63
2017-06-12T12:54:24.466Z,21.68
2017-06-12T12:55:24.395Z,21.61